Rollingwood, Texas
Current Conditions -  °F | °C
As of 4:51 AM on Monday 20 Oct 2014 (Local Time) from KATT Reporting Station
Few Clouds Few Clouds  
Wind Chill: 65°   Ceiling: Unl
Heat Index: 65°   Visibility: 9mi
Dew Point: 62°   Wind: 0mph
Humidity: 90%   Direction: NA
Pressure: 30.03"   Gusts: NA
Location:  30.2958°N, 97.8101°W
Report Text: KATT 200951Z AUTO 00000KT 9SM FEW024 18/17 A3003 RMK AO2 SLP160 T01830167
Loading
Personal Weather Stations






























Interactive Weather Map
Tropical Storm Tracking
New forecast layout! Learn more

10-Day Weather Forecast

Advertisements
Track Severe Weather on mobile